Latest Weather Observations for Penrith

IDN60901

Issued at 8:11 pm EST Sunday 2 August 2015 (issued every 10 minutes, with the page automatically refreshed every 10 minutes)

About weather observations | Map of Sydney area stations | Latest observations for Sydney area | Other Formats
Station Details ID: 067113 Name: PENRITH LAKES AWS Lat: -33.72 Lon: 150.68 Height: 24.7 m
Data from the previous 72 hours. | See also: Recent months at Penrith
Date/Time
EST
Tmp

°C
App
Tmp
°C
Dew
Point
°C
Rel
Hum
%
Delta-T

°C
Wind Press
QNH
hPa
Press
MSL
hPa
Rain
since
9 am
mm
Dir
 
Spd
km/h
Gust
km/h
Spd
kts
Gust
kts
02/08:00pm 17.0 14.9 6.8 51 5.1 WSW 7 13 4 7 - - 0.0
02/07:30pm 18.3 14.7 6.8 47 5.7 WNW 15 24 8 13 - - 0.0
02/07:00pm 19.0 15.8 5.1 40 6.7 W 11 17 6 9 - - 0.0
02/06:30pm 19.7 16.1 5.0 38 7.2 WSW 13 20 7 11 - - 0.0
02/06:00pm 20.5 17.6 4.5 35 7.8 W 9 17 5 9 - - 0.0
02/05:30pm 21.0 17.2 4.1 33 8.2 W 13 24 7 13 - - 0.0
02/05:00pm 21.2 18.7 4.7 34 8.1 W 7 13 4 7 - - 0.0
02/04:30pm 23.0 19.4 5.0 31 9.0 NNW 13 19 7 10 - - 0.0
02/04:00pm 23.8 19.0 4.7 29 9.5 NNW 19 26 10 14 - - 0.0
02/03:30pm 24.3 19.3 4.6 28 9.8 NNW 20 30 11 16 - - 0.0
02/03:00pm 23.9 18.1 4.3 28 9.7 NNW 24 39 13 21 - - 0.0
02/02:30pm 24.4 17.5 4.7 28 9.9 NNW 30 50 16 27 - - 0.0
02/02:26pm 24.3 17.9 5.1 29 9.7 NNW 28 50 15 27 - - 0.0
02/02:00pm 24.2 17.4 5.1 29 9.6 NNW 30 43 16 23 - - 0.0
02/01:53pm 24.0 17.5 4.9 29 9.6 NNW 28 46 15 25 - - 0.0
02/01:30pm 21.6 19.6 7.1 39 7.4 NNE 7 15 4 8 - - 0.0
02/01:00pm 21.2 19.8 7.4 41 7.1 S 4 9 2 5 - - 0.0
02/12:30pm 18.9 17.0 7.7 48 5.7 SW 7 11 4 6 - - 0.0
02/12:00pm 19.0 17.8 6.5 44 6.2 NNW 2 7 1 4 - - 0.0
02/11:30am 18.4 16.9 6.9 47 5.8 NNE 4 9 2 5 - - 0.0
02/11:00am 16.9 15.2 6.1 49 5.3 SSW 4 6 2 3 - - 0.0
02/10:30am 16.7 15.5 6.5 51 5.0 NNE 2 6 1 3 - - 0.0
02/10:00am 14.0 13.4 7.3 64 3.3 CALM 0 2 0 1 - - 0.0
02/09:30am 13.2 11.8 7.2 67 2.9 S 4 6 2 3 - - 0.0
02/08:30am 9.0 8.0 7.3 89 0.8 S 2 4 1 2 - - 0.0
02/08:00am 7.7 6.5 6.3 91 0.6 S 2 6 1 3 - - 0.0
02/07:30am 6.8 4.8 6.1 95 0.3 S 6 9 3 5 - - 0.0
02/07:00am 6.0 4.1 5.1 94 0.4 SSE 4 6 2 3 - - 0.0
02/06:30am 6.3 4.2 5.7 96 0.3 SSW 6 9 3 5 - - 0.0
02/06:00am 6.3 4.6 5.9 97 0.2 SSE 4 6 2 3 - - 0.0
02/05:30am 6.3 4.9 5.7 96 0.3 SSW 2 4 1 2 - - 0.0
02/05:00am 6.5 4.8 5.9 96 0.3 SSW 4 4 2 2 - - 0.0
02/04:30am 7.1 6.3 6.5 96 0.3 CALM 0 0 0 0 - - 0.0
02/04:00am 7.0 5.8 6.3 95 0.3 SSE 2 4 1 2 - - 0.0
02/03:30am 7.4 6.6 6.5 94 0.4 CALM 0 4 0 2 - - 0.0
02/03:00am 7.9 6.8 7.0 94 0.4 WNW 2 6 1 3 - - 0.0
02/02:30am 7.6 5.7 6.7 94 0.4 W 6 13 3 7 - - 0.0
02/02:00am 8.0 6.9 6.9 93 0.5 SSE 2 4 1 2 - - 0.0
02/01:30am 8.2 7.1 6.7 90 0.7 S 2 2 1 1 - - 0.0
02/01:00am 8.5 7.1 7.4 93 0.5 SSW 4 6 2 3 - - 0.0
02/12:30am 8.5 7.0 7.0 90 0.7 SSE 4 6 2 3 - - 0.0
02/12:00am 9.0 7.5 6.8 86 1.0 NNW 4 6 2 3 - - 0.0
 
Date/Time
EST
Tmp

°C
App
Tmp
°C
Dew
Point
°C
Rel
Hum
%
Delta-T

°C
Wind Press
QNH
hPa
Press
MSL
hPa
Rain
since
9 am
mm
Dir
 
Spd
km/h
Gust
km/h
Spd
kts
Gust
kts
01/11:30pm 9.3 7.8 6.7 84 1.2 W 4 7 2 4 - - 0.0
01/11:00pm 9.5 8.8 6.8 83 1.3 CALM 0 0 0 0 - - 0.0
01/10:30pm 9.8 8.7 6.7 81 1.5 N 2 4 1 2 - - 0.0
01/10:00pm 10.7 9.9 6.6 76 1.9 CALM 0 4 0 2 - - 0.0
01/09:30pm 11.4 9.8 6.5 72 2.3 SE 4 4 2 2 - - 0.0
01/09:00pm 10.9 9.9 7.2 78 1.8 SSW 2 6 1 3 - - 0.0
01/08:30pm 11.9 10.7 6.6 70 2.5 SW 2 6 1 3 - - 0.0
01/08:00pm 11.8 10.2 6.3 69 2.6 SW 4 6 2 3 - - 0.0
01/07:30pm 12.3 10.6 6.1 66 2.9 W 4 6 2 3 - - 0.0
01/07:00pm 13.3 10.5 6.9 65 3.1 N 11 13 6 7 - - 0.0
01/06:30pm 15.1 12.6 6.4 56 4.2 N 9 11 5 6 - - 0.0
01/06:00pm 14.5 11.4 7.1 61 3.6 NNW 13 15 7 8 - - 0.0
01/05:30pm 15.4 12.7 5.6 52 4.7 NNW 9 13 5 7 - - 0.0
01/05:00pm 17.9 14.1 3.8 39 6.6 N 13 19 7 10 - - 0.0
01/04:30pm 19.4 15.1 3.2 34 7.6 N 15 19 8 10 - - 0.0
01/04:00pm 20.1 15.0 2.9 32 8.1 N 19 26 10 14 - - 0.0
01/03:30pm 20.1 14.8 2.9 32 8.1 N 20 26 11 14 - - 0.0
01/03:00pm 20.0 14.6 2.4 31 8.2 N 20 28 11 15 - - 0.0
01/02:30pm 21.1 15.6 1.9 28 8.9 N 20 26 11 14 - - 0.0
01/02:00pm 20.7 15.4 2.0 29 8.6 NNW 19 28 10 15 - - 0.0
01/01:30pm 21.6 16.7 1.8 27 9.2 NNW 17 33 9 18 - - 0.0
01/01:00pm 22.0 17.7 3.2 29 9.0 NNW 15 26 8 14 - - 0.0
01/12:30pm 20.6 15.8 2.4 30 8.5 NNW 17 22 9 12 - - 0.0
01/12:00pm 19.7 16.7 4.2 36 7.4 NW 9 17 5 9 - - 0.0
01/11:30am 16.5 15.1 7.4 55 4.5 N 4 6 2 3 - - 0.0
01/11:00am 15.2 13.1 6.5 56 4.2 NNW 7 13 4 7 - - 0.0
01/10:30am 14.7 12.7 7.0 60 3.8 N 7 9 4 5 - - 0.0
01/10:00am 12.6 10.4 6.4 66 2.9 NNW 7 9 4 5 - - 0.0
01/09:30am 10.9 9.3 6.5 74 2.1 NW 4 6 2 3 - - 0.0
01/09:00am 9.3 7.9 7.1 86 1.0 SSE 4 6 2 3 - - 0.0
01/08:30am 7.8 6.5 7.5 98 0.1 SSE 4 6 2 3 - - 0.0
01/08:00am 6.5 5.6 6.2 98 0.1 CALM 0 0 0 0 - - 0.0
01/07:30am 5.8 4.8 5.5 98 0.1 CALM 0 0 0 0 - - 0.0
01/07:00am 4.7 3.5 4.4 98 0.1 CALM 0 0 0 0 - - 0.0
01/06:30am 4.2 2.1 3.9 98 0.1 SW 4 7 2 4 - - 0.0
01/06:00am 4.8 3.6 4.5 98 0.1 CALM 0 0 0 0 - - 0.0
01/05:30am 4.7 3.5 4.4 98 0.1 CALM 0 0 0 0 - - 0.0
01/05:00am 4.2 2.9 3.9 98 0.1 CALM 0 0 0 0 - - 0.0
01/04:30am 4.3 2.6 4.0 98 0.1 SSE 2 2 1 1 - - 0.0
01/04:00am 4.5 3.2 4.2 98 0.1 CALM 0 0 0 0 - - 0.0
01/03:30am 4.2 2.1 3.9 98 0.1 S 4 6 2 3 - - 0.0
01/03:00am 4.8 2.8 4.5 98 0.1 SW 4 4 2 2 - - 0.0
01/02:30am 5.2 3.3 4.9 98 0.1 ESE 4 4 2 2 - - 0.0
01/02:00am 5.0 2.7 4.7 98 0.1 SSW 6 6 3 3 - - 0.0
01/01:30am 5.9 4.5 5.5 97 0.2 NNW 2 4 1 2 - - 0.0
01/01:00am 5.9 3.7 5.5 97 0.2 NE 6 9 3 5 - - 0.0
01/12:30am 6.2 5.2 5.5 95 0.3 CALM 0 2 0 1 - - 0.0
01/12:00am 6.7 5.7 5.7 93 0.4 CALM 0 0 0 0 - - 0.0
 
Date/Time
EST
Tmp

°C
App
Tmp
°C
Dew
Point
°C
Rel
Hum
%
Delta-T

°C
Wind Press
QNH
hPa
Press
MSL
hPa
Rain
since
9 am
mm
Dir
 
Spd
km/h
Gust
km/h
Spd
kts
Gust
kts
31/11:30pm 7.5 6.7 6.4 93 0.5 CALM 0 2 0 1 - - 0.0
31/11:00pm 7.7 6.4 6.2 90 0.7 ENE 2 6 1 3 - - 0.0
31/10:30pm 8.2 7.2 5.8 85 1.1 CALM 0 6 0 3 - - 0.0
31/10:00pm 8.5 6.8 5.8 83 1.2 NW 4 6 2 3 - - 0.0
31/09:30pm 8.8 7.6 6.4 85 1.1 WSW 2 4 1 2 - - 0.0
31/09:00pm 9.0 7.5 6.6 85 1.1 S 4 7 2 4 - - 0.0
31/08:30pm 9.6 8.1 6.7 82 1.4 WSW 4 6 2 3 - - 0.0
31/08:00pm 9.5 7.5 6.4 81 1.4 SSE 6 13 3 7 - - 0.0
31/07:30pm 10.6 10.1 7.8 83 1.4 CALM 0 6 0 3 - - 0.0
31/07:00pm 11.1 10.6 8.0 81 1.5 CALM 0 0 0 0 - - 0.0
31/06:30pm 12.1 11.2 6.2 67 2.8 CALM 0 0 0 0 - - 0.0
31/06:00pm 13.3 11.7 6.2 62 3.4 WSW 4 6 2 3 - - 0.0
31/05:30pm 14.2 12.6 4.5 52 4.5 W 2 7 1 4 - - 0.0
31/05:00pm 17.6 15.4 3.1 38 6.7 ENE 4 7 2 4 - - 0.0
31/04:30pm 18.7 16.0 2.5 34 7.4 E 6 9 3 5 - - 0.0
31/04:00pm 19.5 16.6 2.8 33 7.8 ENE 7 13 4 7 - - 0.0
31/03:30pm 19.1 16.2 2.5 33 7.7 NE 7 11 4 6 - - 0.0
31/03:00pm 20.0 16.8 2.8 32 8.0 NE 9 15 5 8 - - 0.0
31/02:30pm 20.1 17.3 2.9 32 8.1 NE 7 13 4 7 - - 0.0
31/02:00pm 20.1 17.4 2.9 32 8.1 E 6 17 3 9 - - 0.0
31/01:30pm 19.9 17.6 2.7 32 8.0 NE 4 7 2 4 - - 0.0
31/01:00pm 19.6 17.3 2.5 32 7.9 ESE 4 11 2 6 - - 0.0
31/12:30pm 18.7 15.7 2.1 33 7.6 SE 7 13 4 7 - - 0.0
31/12:00pm 18.6 15.5 1.6 32 7.7 N 7 11 4 6 - - 0.0
31/11:30am 18.1 15.0 1.2 32 7.5 NNW 7 13 4 7 - - 0.0
31/11:00am 18.3 15.4 1.3 32 7.6 NW 6 9 3 5 - - 0.0
31/10:30am 17.2 14.7 3.5 40 6.4 NNW 6 7 3 4 - - 0.0
31/10:00am 15.7 14.1 4.7 48 5.2 NNE 2 6 1 3 - - 0.0
31/09:30am 13.2 11.5 5.9 61 3.5 N 4 4 2 2 - - 0.0
31/09:00am 10.3 9.4 6.1 75 1.9 CALM 0 0 0 0 - - 0.0
31/08:30am 9.5 8.2 4.3 70 2.3 CALM 0 0 0 0 - - 0.0
31/08:00am 8.5 6.3 5.1 79 1.5 ESE 6 7 3 4 - - 0.0
31/07:30am 6.7 4.7 4.5 86 1.0 SSE 4 6 2 3 - - 0.0
31/07:00am 6.5 4.9 4.5 87 0.9 SSE 2 4 1 2 - - 0.0
31/06:30am 7.0 4.4 3.4 78 1.5 W 6 9 3 5 - - 0.0
31/06:00am 7.9 5.8 4.1 77 1.6 W 4 9 2 5 - - 0.0
31/05:30am 8.5 5.5 4.3 75 1.8 NNW 9 11 5 6 - - 0.0
31/05:00am 8.0 5.0 4.2 77 1.7 N 9 11 5 6 - - 0.0
31/04:30am 8.2 5.6 4.0 75 1.8 NNW 7 11 4 6 - - 0.0
31/04:00am 10.5 8.4 3.8 63 3.0 NNW 4 9 2 5 - - 0.0
31/03:30am 8.9 7.1 3.5 69 2.3 ENE 2 6 1 3 - - 0.0
31/03:00am 9.7 7.4 3.0 63 2.9 NNE 4 6 2 3 - - 0.0
31/02:30am 10.1 7.9 3.6 64 2.8 SE 4 7 2 4 - - 0.0
31/02:00am 11.1 9.2 2.7 56 3.6 E 2 6 1 3 - - 0.0
31/01:30am 10.8 8.3 3.6 61 3.2 NNW 6 13 3 7 - - 0.0
31/01:00am 11.6 8.5 3.6 58 3.5 NW 9 13 5 7 - - 0.0
31/12:30am 10.6 8.0 3.4 61 3.1 NW 6 7 3 4 - - 0.0
31/12:00am 10.7 8.0 2.8 58 3.4 E 6 7 3 4 - - 0.0
 
Date/Time
EST
Tmp

°C
App
Tmp
°C
Dew
Point
°C
Rel
Hum
%
Delta-T

°C
Wind Press
QNH
hPa
Press
MSL
hPa
Rain
since
9 am
mm
Dir
 
Spd
km/h
Gust
km/h
Spd
kts
Gust
kts
30/11:30pm 11.2 9.8 3.5 59 3.4 CALM 0 0 0 0 - - 0.0
30/11:00pm 11.4 9.7 3.9 60 3.3 N 2 6 1 3 - - 0.0
30/10:30pm 12.4 9.7 3.6 55 3.9 W 7 15 4 8 - - 0.0
30/10:00pm 11.4 9.0 4.2 61 3.2 NNW 6 7 3 4 - - 0.0
30/09:30pm 10.9 8.6 5.0 67 2.7 ENE 6 7 3 4 - - 0.0
30/09:00pm 11.0 9.9 5.3 68 2.6 CALM 0 0 0 0 - - 0.0
30/08:30pm 11.8 9.5 4.8 62 3.2 NNW 6 9 3 5 - - 0.0

Latest Capital City Observations: Canberra | Sydney | Melbourne | Brisbane | Adelaide | Perth | Hobart | Darwin

Other Formats:

Comma delimited format used in spreadsheet applications
http://www.bom.gov.au/fwo/IDN60901/IDN60901.94763.axf

JavaScript Object Notation format (JSON) in row-major order
http://www.bom.gov.au/fwo/IDN60901/IDN60901.94763.json